Main page
METAR-TAF:

METAR-TAF

Airports :

Murcia, Spain

Base Aérea de Alcantarilla

latitude: 37-57N, longitude: 001-14W, elevation: 75 m

Current weather observation

The report was made 42 minutes ago, at 16:00 UTC
Wind 8 kt from the Southeast, varying between East and South
Temperature 33°C
Humidity 44%
Pressure 1012 hPa
Visibility 10 km or more
no clouds below 1500 m and no cumulonimbus

METAR: LERI 221600Z 13008KT 080V170 CAVOK 33/19 Q1012 NOSIG

Time: 18:42 (16:42 UTC)

Forecast

The report was made 2 hours and 42 minutes ago, at 14:00 UTC
Forecast valid from 22 at 15 UTC to 22 at 24 UTC
Wind 9 kt from the East/Southeast
Visibility 10 km or more
no clouds below 1500 m and no cumulonimbus

TAF: LERI 221400Z 2215/2224 12009KT CAVOK

Weather observations and forecasts of more than 4000 airports (METAR and TAF reports).

The available stations are represented by yellow and red dots on the map.

Hover mouse over dot to see the name of the station.

Then click to see weather observations and forecasts.

To change the map : click on the green buttons with a black cross to zoom in, on the green button with a dash to zoom out, or on the green arrows for adjacent maps.


METAR-TAF: